Time;durP1;ratioP1;P1;durP2;ratioP2;P2;SDS_P1;SDS_P2;PMS_P1;PMS_P2;Temp;Humidity;BMP_temperature;BMP_pressure;BME280_temperature;BME280_humidity;BME280_pressure;Samples;Min_cycle;Max_cycle;Signal;HPM_P1;HPM_P2
2023/08/05 00:00:32;;;;;;;;;5.50;5.50;;;;;;;;5070156;28;8796;-83
2023/08/05 00:02:59;;;;;;;;;4.75;4.75;;;;;;;;5064871;28;8907;-82
2023/08/05 00:05:26;;;;;;;;;5.00;5.00;;;;;;;;5069671;28;8966;-82
2023/08/05 00:07:53;;;;;;;;;5.25;5.25;;;;;;;;5071272;28;8857;-82
2023/08/05 00:10:20;;;;;;;;;7.75;7.75;;;;;;;;5075521;28;9606;-83
2023/08/05 00:12:48;;;;;;;;;6.50;6.50;;;;;;;;5070034;28;8859;-83
2023/08/05 00:15:16;;;;;;;;;7.75;7.75;;;;;;;;5070442;28;8867;-84
2023/08/05 00:17:44;;;;;;;;;6.50;6.50;;;;;;;;5069581;28;8869;-83
2023/08/05 00:20:12;;;;;;;;;8.25;8.25;;;;;;;;5070906;28;8858;-82
2023/08/05 00:22:39;;;;;;;;;6.00;6.00;;;;;;;;5071062;28;8869;-82
2023/08/05 00:25:07;;;;;;;;;7.00;7.00;;;;;;;;5070139;28;8893;-83
2023/08/05 00:27:34;;;;;;;;;4.00;4.00;;;;;;;;5073150;28;8856;-83
2023/08/05 00:30:03;;;;;;;;;8.50;6.75;;;;;;;;5077405;28;8865;-82
2023/08/05 00:32:34;;;;;;;;;5.25;5.25;;;;;;;;5069013;28;8893;-83
2023/08/05 00:35:01;;;;;;;;;6.00;6.00;;;;;;;;5069844;28;8866;-83
2023/08/05 00:37:28;;;;;;;;;9.00;6.00;;;;;;;;5068924;28;8888;-83
2023/08/05 00:39:56;;;;;;;;;6.00;6.00;;;;;;;;5069445;28;8862;-84
2023/08/05 00:42:23;;;;;;;;;8.25;8.25;;;;;;;;5069646;28;8879;-83
2023/08/05 00:44:50;;;;;;;;;9.00;7.50;;;;;;;;5069663;28;8871;-84
2023/08/05 00:47:18;;;;;;;;;9.75;8.00;;;;;;;;5057683;28;8889;-84
2023/08/05 00:49:48;;;;;;;;;10.50;9.50;;;;;;;;5069382;28;8850;-84
2023/08/05 00:52:17;;;;;;;;;8.50;7.25;;;;;;;;5069835;28;8872;-84
2023/08/05 00:54:45;;;;;;;;;10.25;9.50;;;;;;;;5069095;28;9001;-83
2023/08/05 00:57:13;;;;;;;;;8.75;7.50;;;;;;;;5070258;28;8862;-82
2023/08/05 00:59:42;;;;;;;;;8.75;8.75;;;;;;;;5069151;28;9001;-82
2023/08/05 01:02:10;;;;;;;;;10.75;9.50;;;;;;;;5068765;28;8807;-81
2023/08/05 01:04:37;;;;;;;;;11.25;11.25;;;;;;;;5081005;28;8843;-83
2023/08/05 01:07:06;;;;;;;;;10.75;10.00;;;;;;;;5069039;28;8859;-84
2023/08/05 01:09:33;;;;;;;;;8.00;8.00;;;;;;;;5080848;28;8827;-82
2023/08/05 01:12:01;;;;;;;;;14.25;12.25;;;;;;;;5069268;28;8855;-82
2023/08/05 01:14:29;;;;;;;;;10.00;9.50;;;;;;;;5068630;28;8864;-82
2023/08/05 01:16:56;;;;;;;;;9.00;9.00;;;;;;;;5069909;28;8847;-82
2023/08/05 01:19:24;;;;;;;;;11.50;10.25;;;;;;;;5086434;28;8864;-82
2023/08/05 01:21:57;;;;;;;;;12.75;12.25;;;;;;;;5078483;28;8886;-82
2023/08/05 01:24:30;;;;;;;;;9.50;9.50;;;;;;;;5069490;28;8891;-83
2023/08/05 01:27:00;;;;;;;;;12.25;10.75;;;;;;;;5069129;28;8856;-82
2023/08/05 01:29:27;;;;;;;;;13.00;12.25;;;;;;;;5069312;28;8854;-82
2023/08/05 01:31:55;;;;;;;;;12.50;10.75;;;;;;;;5068952;28;9590;-84
2023/08/05 01:34:23;;;;;;;;;14.25;11.00;;;;;;;;5068658;28;8897;-83
2023/08/05 01:36:50;;;;;;;;;11.00;9.50;;;;;;;;5068256;28;8882;-83
2023/08/05 01:39:17;;;;;;;;;12.00;12.00;;;;;;;;5068871;28;8855;-84
2023/08/05 01:41:44;;;;;;;;;6.75;6.75;;;;;;;;5068488;28;8857;-83
2023/08/05 01:44:13;;;;;;;;;13.00;11.25;;;;;;;;5068734;28;8965;-84
2023/08/05 01:46:40;;;;;;;;;10.00;10.00;;;;;;;;5067975;28;8891;-84
2023/08/05 01:49:07;;;;;;;;;12.25;11.00;;;;;;;;5069080;28;8870;-84
2023/08/05 01:51:35;;;;;;;;;10.50;10.50;;;;;;;;5068662;28;8880;-83
2023/08/05 01:54:02;;;;;;;;;9.50;9.50;;;;;;;;5068954;28;8855;-82
2023/08/05 01:56:29;;;;;;;;;12.75;12.75;;;;;;;;5067310;28;8893;-83
2023/08/05 01:58:56;;;;;;;;;7.50;6.00;;;;;;;;5069052;28;8854;-84
2023/08/05 02:01:42;;;;;;;;;11.75;10.00;;;;;;;;5068090;28;8791;-82
2023/08/05 02:04:09;;;;;;;;;11.25;11.25;;;;;;;;5068845;28;8916;-83
2023/08/05 02:06:36;;;;;;;;;13.50;12.00;;;;;;;;5068880;28;8844;-83
2023/08/05 02:09:04;;;;;;;;;13.50;13.50;;;;;;;;5068295;28;8866;-83
2023/08/05 02:11:31;;;;;;;;;14.00;14.00;;;;;;;;5068354;28;9601;-83
2023/08/05 02:13:58;;;;;;;;;13.00;11.50;;;;;;;;5068317;28;8985;-83
2023/08/05 02:16:27;;;;;;;;;13.75;12.75;;;;;;;;5067136;28;8847;-82
2023/08/05 02:18:54;;;;;;;;;15.50;14.50;;;;;;;;5068328;28;8858;-83
2023/08/05 02:21:23;;;;;;;;;17.75;16.50;;;;;;;;5068600;28;9241;-83
2023/08/05 02:23:50;;;;;;;;;17.00;17.00;;;;;;;;5067439;28;8870;-82
2023/08/05 02:26:17;;;;;;;;;18.33;15.33;;;;;;;;5068089;28;8863;-82
2023/08/05 02:28:46;;;;;;;;;12.50;12.50;;;;;;;;5069478;28;8931;-83
2023/08/05 02:31:13;;;;;;;;;12.00;12.00;;;;;;;;5083339;28;8815;-84
2023/08/05 02:33:42;;;;;;;;;13.00;12.00;;;;;;;;5071505;28;9075;-84
2023/08/05 02:36:09;;;;;;;;;13.67;13.67;;;;;;;;5072379;28;8918;-84
2023/08/05 02:38:37;;;;;;;;;12.67;11.67;;;;;;;;5072839;28;9012;-83
2023/08/05 02:41:08;;;;;;;;;10.33;8.67;;;;;;;;5073572;28;8958;-84
2023/08/05 02:43:35;;;;;;;;;13.25;13.00;;;;;;;;5072165;28;9058;-84
2023/08/05 02:46:02;;;;;;;;;13.00;13.00;;;;;;;;5072487;28;8874;-83
2023/08/05 02:48:29;;;;;;;;;16.75;13.50;;;;;;;;5064826;28;8908;-85
2023/08/05 02:50:58;;;;;;;;;13.00;13.00;;;;;;;;5071879;28;8843;-84
2023/08/05 02:53:25;;;;;;;;;12.50;10.75;;;;;;;;5071941;28;8850;-83
2023/08/05 02:55:53;;;;;;;;;12.25;10.75;;;;;;;;5071184;28;8866;-84
2023/08/05 02:58:20;;;;;;;;;9.00;7.00;;;;;;;;5072100;28;8865;-84
2023/08/05 03:00:48;;;;;;;;;8.50;8.50;;;;;;;;5073295;28;8889;-84
2023/08/05 03:03:16;;;;;;;;;8.75;8.75;;;;;;;;5073797;28;8999;-83
2023/08/05 03:05:43;;;;;;;;;12.00;10.50;;;;;;;;5073313;28;8899;-83
2023/08/05 03:08:11;;;;;;;;;8.50;8.50;;;;;;;;5072226;28;9500;-84
2023/08/05 03:10:40;;;;;;;;;11.25;8.25;;;;;;;;5072166;28;8854;-84
2023/08/05 03:13:07;;;;;;;;;10.75;10.75;;;;;;;;5072995;28;8843;-84
2023/08/05 03:15:35;;;;;;;;;16.00;12.50;;;;;;;;5077294;28;8858;-84
2023/08/05 03:18:04;;;;;;;;;15.25;13.50;;;;;;;;5071459;28;8862;-82
2023/08/05 03:20:34;;;;;;;;;10.00;10.00;;;;;;;;5060103;28;8875;-83
2023/08/05 03:23:04;;;;;;;;;14.00;14.00;;;;;;;;5071195;28;8977;-83
2023/08/05 03:25:33;;;;;;;;;10.25;10.25;;;;;;;;5071020;28;8886;-83
2023/08/05 03:28:01;;;;;;;;;10.25;8.50;;;;;;;;5071299;28;8973;-83
2023/08/05 03:30:30;;;;;;;;;9.00;9.00;;;;;;;;5070865;28;9652;-84
2023/08/05 03:32:57;;;;;;;;;9.00;9.00;;;;;;;;5081740;28;8860;-83
2023/08/05 03:35:27;;;;;;;;;11.75;11.75;;;;;;;;5084388;28;8863;-84
2023/08/05 03:37:54;;;;;;;;;8.00;8.00;;;;;;;;5071694;28;8880;-83
2023/08/05 03:40:22;;;;;;;;;15.75;12.75;;;;;;;;5083080;28;8885;-84
2023/08/05 03:42:53;;;;;;;;;9.75;9.75;;;;;;;;5071486;28;8866;-83
2023/08/05 03:45:20;;;;;;;;;9.25;9.25;;;;;;;;5076728;28;8868;-82
2023/08/05 03:47:49;;;;;;;;;10.25;10.25;;;;;;;;5076162;28;9688;-82
2023/08/05 03:50:17;;;;;;;;;9.25;9.25;;;;;;;;5059249;28;8846;-83
2023/08/05 03:52:44;;;;;;;;;5.00;5.00;;;;;;;;5070038;28;9004;-83
2023/08/05 03:55:11;;;;;;;;;11.00;11.00;;;;;;;;5070255;28;8887;-83
2023/08/05 03:57:39;;;;;;;;;10.75;9.75;;;;;;;;5070262;28;8851;-84
2023/08/05 04:00:09;;;;;;;;;7.75;7.50;;;;;;;;5057168;28;8847;-83
2023/08/05 04:02:36;;;;;;;;;10.00;8.75;;;;;;;;5070294;28;8859;-83
2023/08/05 04:05:04;;;;;;;;;7.75;7.75;;;;;;;;5070030;28;8839;-83
2023/08/05 04:07:31;;;;;;;;;9.75;8.50;;;;;;;;5069543;28;8886;-83
2023/08/05 04:09:59;;;;;;;;;9.25;9.25;;;;;;;;5070410;28;8854;-84
2023/08/05 04:12:26;;;;;;;;;10.00;8.25;;;;;;;;5069511;28;8871;-84
2023/08/05 04:14:57;;;;;;;;;10.25;8.50;;;;;;;;5070458;28;8932;-83
2023/08/05 04:17:26;;;;;;;;;13.00;11.00;;;;;;;;5068531;28;8855;-84
2023/08/05 04:19:53;;;;;;;;;13.25;13.25;;;;;;;;5069923;28;8909;-82
2023/08/05 04:22:22;;;;;;;;;13.75;13.50;;;;;;;;5069902;28;8873;-82
2023/08/05 04:24:51;;;;;;;;;19.00;14.50;;;;;;;;5080739;28;8887;-83
2023/08/05 04:27:18;;;;;;;;;15.50;13.00;;;;;;;;5074492;28;8860;-83
2023/08/05 04:29:46;;;;;;;;;20.75;17.25;;;;;;;;5077622;28;9601;-83
2023/08/05 04:32:13;;;;;;;;;17.00;16.25;;;;;;;;5068587;28;8815;-83
2023/08/05 04:34:43;;;;;;;;;20.50;18.25;;;;;;;;5069532;28;8867;-82
2023/08/05 04:37:17;;;;;;;;;18.50;18.50;;;;;;;;5067670;28;8847;-83
2023/08/05 04:39:44;;;;;;;;;8.50;8.50;;;;;;;;5081959;28;8876;-82
2023/08/05 04:42:12;;;;;;;;;9.25;9.25;;;;;;;;5070535;28;8847;-82
2023/08/05 04:44:41;;;;;;;;;11.75;10.50;;;;;;;;5071179;28;8866;-82
2023/08/05 04:47:08;;;;;;;;;8.75;8.75;;;;;;;;5071214;28;8851;-83
2023/08/05 04:49:40;;;;;;;;;10.00;10.00;;;;;;;;5069054;28;8874;-83
2023/08/05 04:52:10;;;;;;;;;9.75;9.75;;;;;;;;5068709;28;8866;-82
2023/08/05 04:54:38;;;;;;;;;11.25;8.25;;;;;;;;5069060;28;8863;-82
2023/08/05 04:57:06;;;;;;;;;8.50;8.50;;;;;;;;5069217;28;8863;-82
2023/08/05 04:59:34;;;;;;;;;10.50;10.50;;;;;;;;5068659;28;8954;-82
2023/08/05 05:02:04;;;;;;;;;9.00;8.50;;;;;;;;5068940;28;8857;-83
2023/08/05 05:04:32;;;;;;;;;7.50;7.50;;;;;;;;5068138;28;8879;-83
2023/08/05 05:06:59;;;;;;;;;9.25;9.25;;;;;;;;5068002;28;9009;-83
2023/08/05 05:09:28;;;;;;;;;10.75;9.75;;;;;;;;5064731;28;8851;-82
2023/08/05 05:11:55;;;;;;;;;10.00;10.00;;;;;;;;5068686;28;8974;-83
2023/08/05 05:14:23;;;;;;;;;10.50;9.00;;;;;;;;5068316;28;8882;-82
2023/08/05 05:16:52;;;;;;;;;8.50;8.50;;;;;;;;5068699;28;8847;-84
2023/08/05 05:19:20;;;;;;;;;10.50;10.50;;;;;;;;5068262;28;8866;-84
2023/08/05 05:21:47;;;;;;;;;10.75;9.75;;;;;;;;5068826;28;8854;-83
2023/08/05 05:24:14;;;;;;;;;11.75;11.00;;;;;;;;5068356;28;8893;-83
2023/08/05 05:26:44;;;;;;;;;9.25;9.25;;;;;;;;5069008;28;8854;-84
2023/08/05 05:29:19;;;;;;;;;8.00;8.00;;;;;;;;5074319;28;8872;-83
2023/08/05 05:31:46;;;;;;;;;11.75;10.75;;;;;;;;5075063;28;8845;-84
2023/08/05 05:34:14;;;;;;;;;10.75;10.75;;;;;;;;5068808;28;8851;-85
2023/08/05 05:36:43;;;;;;;;;9.00;9.00;;;;;;;;5080595;28;8852;-82
2023/08/05 05:39:19;;;;;;;;;9.75;9.00;;;;;;;;5068434;28;8990;-82
2023/08/05 05:41:48;;;;;;;;;10.75;10.75;;;;;;;;5067846;28;8950;-83
2023/08/05 05:44:15;;;;;;;;;9.00;9.00;;;;;;;;5068100;28;8871;-84
2023/08/05 05:46:43;;;;;;;;;11.25;11.25;;;;;;;;5068160;28;9027;-84
2023/08/05 05:49:10;;;;;;;;;9.00;8.50;;;;;;;;5068847;28;8935;-83
2023/08/05 05:51:38;;;;;;;;;8.50;8.50;;;;;;;;5068101;28;9331;-82
2023/08/05 05:54:05;;;;;;;;;14.00;11.25;;;;;;;;5068076;28;8957;-84
2023/08/05 05:56:32;;;;;;;;;10.75;10.25;;;;;;;;5080124;28;8909;-82
2023/08/05 05:59:10;;;;;;;;;8.50;8.50;;;;;;;;5068393;28;8894;-84
2023/08/05 06:01:37;;;;;;;;;11.25;10.50;;;;;;;;5066847;28;8783;-83
2023/08/05 06:04:08;;;;;;;;;9.50;8.50;;;;;;;;5070332;28;8862;-82
2023/08/05 06:06:35;;;;;;;;;7.00;4.00;;;;;;;;5073034;28;8851;-82
2023/08/05 06:09:04;;;;;;;;;9.50;7.75;;;;;;;;5071406;28;8878;-82
2023/08/05 06:11:33;;;;;;;;;12.00;8.50;;;;;;;;5072527;28;8847;-82
2023/08/05 06:14:04;;;;;;;;;11.25;10.00;;;;;;;;5083981;28;8860;-80
2023/08/05 06:16:32;;;;;;;;;8.25;7.00;;;;;;;;5072451;28;8866;-78
2023/08/05 06:18:59;;;;;;;;;11.00;9.75;;;;;;;;5072063;28;8875;-76
2023/08/05 06:21:26;;;;;;;;;8.25;7.25;;;;;;;;5083697;28;8857;-80
2023/08/05 06:23:53;;;;;;;;;6.00;6.00;;;;;;;;5082420;28;9008;-79
2023/08/05 06:26:20;;;;;;;;;9.75;9.75;;;;;;;;5072536;28;8893;-79
2023/08/05 06:28:47;;;;;;;;;8.00;7.50;;;;;;;;5072135;28;9010;-78
2023/08/05 06:31:16;;;;;;;;;7.50;7.50;;;;;;;;5069739;28;8853;-80
2023/08/05 06:33:43;;;;;;;;;7.25;7.25;;;;;;;;5070927;28;8866;-79
2023/08/05 06:36:11;;;;;;;;;7.50;7.50;;;;;;;;5070780;28;9640;-81
2023/08/05 06:38:38;;;;;;;;;6.75;6.75;;;;;;;;5071139;28;8939;-80
2023/08/05 06:41:05;;;;;;;;;8.00;7.25;;;;;;;;5070223;28;8986;-78
2023/08/05 06:43:32;;;;;;;;;6.25;6.25;;;;;;;;5071132;28;8932;-78
2023/08/05 06:45:59;;;;;;;;;8.75;7.50;;;;;;;;5071342;28;9650;-75
2023/08/05 06:48:28;;;;;;;;;6.00;5.75;;;;;;;;5070211;28;8877;-80
2023/08/05 06:50:55;;;;;;;;;8.25;8.25;;;;;;;;5070539;28;8861;-77
2023/08/05 06:53:22;;;;;;;;;6.50;6.50;;;;;;;;5075711;28;8919;-80
2023/08/05 06:55:49;;;;;;;;;7.25;7.00;;;;;;;;5074188;28;8965;-79
2023/08/05 06:58:17;;;;;;;;;9.25;8.50;;;;;;;;5071160;28;8843;-79
2023/08/05 07:00:53;;;;;;;;;9.00;8.25;;;;;;;;5081825;28;8800;-79
2023/08/05 07:03:20;;;;;;;;;7.50;6.50;;;;;;;;5070121;28;8939;-77
2023/08/05 07:05:48;;;;;;;;;5.50;5.50;;;;;;;;5069674;28;8851;-78
2023/08/05 07:08:16;;;;;;;;;6.25;6.25;;;;;;;;5069979;28;8874;-79
2023/08/05 07:10:43;;;;;;;;;5.00;5.00;;;;;;;;5069906;28;8846;-79
2023/08/05 07:13:10;;;;;;;;;7.25;6.75;;;;;;;;5070231;28;8970;-77
2023/08/05 07:15:37;;;;;;;;;7.25;6.00;;;;;;;;5069449;28;9653;-76
2023/08/05 07:18:05;;;;;;;;;6.75;6.75;;;;;;;;5069716;28;8851;-75
2023/08/05 07:20:32;;;;;;;;;8.00;6.50;;;;;;;;5071628;28;8868;-74
2023/08/05 07:23:01;;;;;;;;;6.75;6.75;;;;;;;;5089110;28;8841;-75
2023/08/05 07:25:29;;;;;;;;;5.75;5.75;;;;;;;;5073411;28;8845;-75
2023/08/05 07:27:56;;;;;;;;;9.00;9.00;;;;;;;;5070192;28;8858;-75
2023/08/05 07:30:23;;;;;;;;;3.50;3.00;;;;;;;;5068834;28;8795;-79
2023/08/05 07:32:50;;;;;;;;;8.75;5.75;;;;;;;;5079740;28;8882;-77
2023/08/05 07:35:17;;;;;;;;;7.75;7.75;;;;;;;;5074307;28;8853;-78
2023/08/05 07:37:46;;;;;;;;;7.00;6.75;;;;;;;;5078794;28;8880;-79
2023/08/05 07:40:15;;;;;;;;;7.00;7.00;;;;;;;;5069403;28;8965;-80
2023/08/05 07:42:43;;;;;;;;;8.00;8.00;;;;;;;;5070223;28;8866;-77
2023/08/05 07:45:16;;;;;;;;;9.50;7.75;;;;;;;;5070120;28;9898;-91
2023/08/05 07:47:43;;;;;;;;;9.75;9.75;;;;;;;;5071102;28;9476;-77
2023/08/05 07:50:13;;;;;;;;;10.50;10.50;;;;;;;;5069625;28;9601;-81
2023/08/05 07:52:41;;;;;;;;;12.25;12.25;;;;;;;;5069961;28;8989;-83
2023/08/05 07:55:08;;;;;;;;;10.50;9.00;;;;;;;;5069770;28;8872;-80
2023/08/05 07:57:37;;;;;;;;;13.75;9.50;;;;;;;;5068993;28;9578;-81
2023/08/05 08:00:06;;;;;;;;;9.75;9.75;;;;;;;;5070108;28;8882;-81
2023/08/05 08:02:33;;;;;;;;;8.25;8.25;;;;;;;;5070185;28;8787;-82
2023/08/05 08:05:04;;;;;;;;;10.00;10.00;;;;;;;;5070954;28;8847;-79
2023/08/05 08:07:31;;;;;;;;;7.75;7.75;;;;;;;;5070164;28;8859;-80
2023/08/05 08:09:58;;;;;;;;;6.75;6.75;;;;;;;;5069646;28;8863;-80
2023/08/05 08:12:26;;;;;;;;;7.75;7.25;;;;;;;;5077702;28;8863;-80
2023/08/05 08:14:54;;;;;;;;;5.00;5.00;;;;;;;;5069744;28;8888;-81
2023/08/05 08:17:21;;;;;;;;;6.50;6.50;;;;;;;;5073379;28;8877;-80
2023/08/05 08:19:50;;;;;;;;;5.50;4.75;;;;;;;;5068880;28;8867;-77
2023/08/05 08:22:17;;;;;;;;;5.00;3.75;;;;;;;;5071340;28;8862;-77
2023/08/05 08:24:44;;;;;;;;;3.00;2.75;;;;;;;;5070294;28;9630;-80
2023/08/05 08:27:14;;;;;;;;;2.00;2.00;;;;;;;;5071957;28;9656;-78
2023/08/05 08:29:41;;;;;;;;;5.00;4.50;;;;;;;;5068768;28;8884;-81
2023/08/05 08:32:10;;;;;;;;;4.75;3.75;;;;;;;;5067692;28;8815;-80
2023/08/05 08:34:37;;;;;;;;;3.75;3.75;;;;;;;;5067972;28;8851;-80
2023/08/05 08:37:04;;;;;;;;;6.25;3.50;;;;;;;;5068244;28;8858;-78
2023/08/05 08:39:32;;;;;;;;;2.25;2.25;;;;;;;;5073450;28;8853;-83
2023/08/05 08:41:59;;;;;;;;;3.00;3.00;;;;;;;;5068686;28;8897;-81
2023/08/05 08:44:28;;;;;;;;;2.00;2.00;;;;;;;;5060184;28;8877;-82
2023/08/05 08:46:55;;;;;;;;;2.00;2.00;;;;;;;;5068162;28;8875;-77
2023/08/05 08:49:25;;;;;;;;;3.75;3.00;;;;;;;;5068135;28;8875;-80
2023/08/05 08:51:52;;;;;;;;;4.00;3.00;;;;;;;;5067938;28;8977;-80
2023/08/05 08:54:20;;;;;;;;;3.75;2.00;;;;;;;;5072019;28;8827;-79
2023/08/05 08:56:47;;;;;;;;;1.50;1.50;;;;;;;;5068312;28;9038;-78
2023/08/05 08:59:14;;;;;;;;;2.25;2.25;;;;;;;;5067839;28;8847;-80
2023/08/05 09:01:43;;;;;;;;;2.75;2.75;;;;;;;;5067674;28;8833;-78
2023/08/05 09:04:12;;;;;;;;;2.50;2.50;;;;;;;;5067523;28;8851;-80
2023/08/05 09:06:40;;;;;;;;;4.00;4.00;;;;;;;;5068269;28;8865;-78
2023/08/05 09:09:08;;;;;;;;;0.25;0.25;;;;;;;;5067397;28;8981;-80
2023/08/05 09:11:35;;;;;;;;;2.50;2.50;;;;;;;;5068163;28;8877;-79
2023/08/05 09:14:04;;;;;;;;;2.25;2.25;;;;;;;;5067131;28;8851;-78
2023/08/05 09:16:32;;;;;;;;;2.25;2.25;;;;;;;;5067877;28;8855;-77
2023/08/05 09:19:00;;;;;;;;;3.00;3.00;;;;;;;;5067588;28;8851;-75
2023/08/05 09:21:28;;;;;;;;;3.25;1.75;;;;;;;;5068073;28;8854;-75
2023/08/05 09:23:57;;;;;;;;;3.00;2.00;;;;;;;;5072726;28;8850;-78
2023/08/05 09:26:28;;;;;;;;;1.25;1.25;;;;;;;;5067354;28;8843;-78
2023/08/05 09:28:56;;;;;;;;;5.75;4.00;;;;;;;;5067919;28;8855;-77
2023/08/05 09:31:23;;;;;;;;;3.25;3.25;;;;;;;;5066759;28;8865;-77
2023/08/05 09:33:50;;;;;;;;;3.00;3.00;;;;;;;;5067584;28;8846;-78
2023/08/05 09:36:21;;;;;;;;;6.50;4.75;;;;;;;;5067442;28;8859;-78
2023/08/05 09:39:05;;;;;;;;;5.25;3.75;;;;;;;;5068252;28;8940;-77
2023/08/05 09:41:35;;;;;;;;;2.25;1.00;;;;;;;;5069934;28;8873;-75
2023/08/05 09:44:04;;;;;;;;;5.25;4.50;;;;;;;;5068440;28;8843;-73
2023/08/05 09:46:39;;;;;;;;;2.75;2.75;;;;;;;;5064000;28;8869;-82
2023/08/05 09:49:08;;;;;;;;;4.75;3.50;;;;;;;;5067885;28;8885;-81
2023/08/05 09:51:35;;;;;;;;;4.50;4.50;;;;;;;;5067767;28;8940;-79
2023/08/05 09:54:08;;;;;;;;;8.75;6.00;;;;;;;;5067282;28;8831;-76
2023/08/05 09:56:37;;;;;;;;;6.00;4.75;;;;;;;;5067032;28;8846;-78
2023/08/05 09:59:04;;;;;;;;;6.00;6.00;;;;;;;;5067543;28;8870;-76
2023/08/05 10:01:31;;;;;;;;;5.25;5.25;;;;;;;;5078690;28;8834;-74
2023/08/05 10:04:01;;;;;;;;;3.00;3.00;;;;;;;;5067428;28;8869;-75
2023/08/05 10:06:28;;;;;;;;;3.75;3.75;;;;;;;;5066911;28;8874;-79
2023/08/05 10:08:56;;;;;;;;;3.00;3.00;;;;;;;;5066732;28;9642;-76
2023/08/05 10:11:25;;;;;;;;;3.50;3.50;;;;;;;;5066909;28;8859;-78
2023/08/05 10:13:54;;;;;;;;;4.25;3.50;;;;;;;;5067089;28;8869;-76
2023/08/05 10:16:22;;;;;;;;;3.00;3.00;;;;;;;;5061898;28;8840;-76
2023/08/05 10:18:49;;;;;;;;;3.25;3.25;;;;;;;;5071664;28;8855;-75
2023/08/05 10:21:37;;;;;;;;;3.75;3.75;;;;;;;;5066824;28;8879;-80
2023/08/05 10:24:05;;;;;;;;;3.75;3.75;;;;;;;;5066774;28;8843;-81
2023/08/05 10:26:47;;;;;;;;;4.00;3.00;;;;;;;;5068537;28;8881;-76
2023/08/05 10:29:26;;;;;;;;;6.00;4.50;;;;;;;;5073352;28;8848;-84
2023/08/05 10:32:10;;;;;;;;;4.75;3.75;;;;;;;;5070676;28;8811;-82
2023/08/05 10:34:37;;;;;;;;;9.25;8.75;;;;;;;;5067161;28;8863;-83
2023/08/05 10:37:04;;;;;;;;;5.00;5.00;;;;;;;;5079123;28;8859;-78
2023/08/05 10:39:44;;;;;;;;;4.50;4.50;;;;;;;;5067106;28;8862;-76
2023/08/05 10:42:21;;;;;;;;;2.50;2.50;;;;;;;;5086825;28;8901;-75
2023/08/05 10:44:50;;;;;;;;;2.00;1.00;;;;;;;;5084171;28;8864;-76
2023/08/05 10:47:21;;;;;;;;;3.00;3.00;;;;;;;;5066881;28;8851;-76
2023/08/05 10:49:48;;;;;;;;;3.50;3.50;;;;;;;;5069738;28;8875;-77
2023/08/05 10:52:17;;;;;;;;;2.00;2.00;;;;;;;;5089630;28;8975;-77
2023/08/05 10:54:44;;;;;;;;;2.75;2.75;;;;;;;;5073385;28;8842;-79
2023/08/05 10:57:31;;;;;;;;;3.00;3.00;;;;;;;;5070337;28;8855;-79
2023/08/05 10:59:58;;;;;;;;;5.75;3.75;;;;;;;;5070431;28;8955;-79
2023/08/05 11:02:26;;;;;;;;;4.00;4.00;;;;;;;;5069345;28;9591;-78
2023/08/05 11:05:06;;;;;;;;;3.75;3.75;;;;;;;;5070246;28;8866;-79
2023/08/05 11:07:36;;;;;;;;;5.00;4.25;;;;;;;;5069784;28;8855;-80
2023/08/05 11:10:05;;;;;;;;;5.60;4.00;;;;;;;;5070109;28;8857;-81
2023/08/05 11:12:34;;;;;;;;;3.40;3.40;;;;;;;;5072454;28;8851;-78
2023/08/05 11:15:01;;;;;;;;;2.80;2.20;;;;;;;;5080065;28;8853;-78
2023/08/05 11:17:28;;;;;;;;;3.00;3.00;;;;;;;;5070979;28;8863;-80
2023/08/05 11:19:58;;;;;;;;;3.60;3.00;;;;;;;;5072192;28;9009;-78
2023/08/05 11:22:26;;;;;;;;;3.80;3.80;;;;;;;;5068885;28;8869;-79
2023/08/05 11:25:02;;;;;;;;;3.60;3.60;;;;;;;;5063120;28;8850;-76
2023/08/05 11:27:39;;;;;;;;;4.00;3.25;;;;;;;;5075493;28;8981;-80
2023/08/05 11:30:16;;;;;;;;;3.00;3.00;;;;;;;;5079937;28;8856;-75
2023/08/05 11:32:55;;;;;;;;;5.00;3.00;;;;;;;;5059382;28;9691;-78
2023/08/05 11:35:22;;;;;;;;;3.00;3.00;;;;;;;;5069295;28;8870;-78
2023/08/05 11:37:49;;;;;;;;;4.75;3.00;;;;;;;;5069856;28;8969;-78
2023/08/05 11:40:17;;;;;;;;;2.00;2.00;;;;;;;;5068982;28;8846;-79
2023/08/05 11:42:48;;;;;;;;;4.00;3.00;;;;;;;;5069722;28;8859;-78
2023/08/05 11:45:16;;;;;;;;;5.00;3.00;;;;;;;;5070745;28;8850;-78
2023/08/05 11:47:44;;;;;;;;;2.25;2.25;;;;;;;;5069722;28;8885;-78
2023/08/05 11:50:13;;;;;;;;;4.25;3.00;;;;;;;;5069071;28;8881;-78
2023/08/05 11:52:40;;;;;;;;;3.80;3.80;;;;;;;;5071582;28;8870;-78
2023/08/05 11:55:09;;;;;;;;;3.00;3.00;;;;;;;;5068677;28;9610;-80
2023/08/05 11:57:36;;;;;;;;;3.40;3.40;;;;;;;;5068885;28;8878;-77
2023/08/05 12:00:09;;;;;;;;;3.00;3.00;;;;;;;;5070045;28;9637;-76
2023/08/05 12:02:37;;;;;;;;;2.80;2.80;;;;;;;;5070027;28;9546;-74
2023/08/05 12:05:05;;;;;;;;;5.40;4.00;;;;;;;;5068758;28;9775;-75
2023/08/05 12:07:33;;;;;;;;;3.00;3.00;;;;;;;;5069236;28;8966;-76
2023/08/05 12:10:08;;;;;;;;;5.40;3.60;;;;;;;;5069541;28;8838;-77
2023/08/05 12:12:35;;;;;;;;;3.00;3.00;;;;;;;;5068991;28;8890;-74
2023/08/05 12:15:11;;;;;;;;;3.25;3.00;;;;;;;;5068645;28;8850;-76
2023/08/05 12:17:39;;;;;;;;;5.75;4.00;;;;;;;;5068712;28;9646;-76
2023/08/05 12:20:10;;;;;;;;;4.00;4.00;;;;;;;;5068538;28;8865;-75
2023/08/05 12:22:37;;;;;;;;;3.25;3.25;;;;;;;;5069164;28;8850;-76
2023/08/05 12:25:05;;;;;;;;;3.00;3.00;;;;;;;;5060348;28;8843;-77
2023/08/05 12:27:33;;;;;;;;;5.00;4.00;;;;;;;;5068517;28;8869;-76
2023/08/05 12:30:00;;;;;;;;;5.00;3.00;;;;;;;;5073800;28;9284;-77
2023/08/05 12:32:28;;;;;;;;;3.75;3.75;;;;;;;;5068528;28;8815;-77
2023/08/05 12:34:56;;;;;;;;;3.75;3.75;;;;;;;;5068592;28;8880;-76
2023/08/05 12:37:23;;;;;;;;;4.00;4.00;;;;;;;;5067971;28;8859;-75
2023/08/05 12:39:50;;;;;;;;;4.00;4.00;;;;;;;;5069037;28;8863;-76
2023/08/05 12:42:17;;;;;;;;;5.50;5.50;;;;;;;;5068201;28;8894;-76
2023/08/05 12:44:44;;;;;;;;;4.75;4.75;;;;;;;;5068781;28;8863;-75
2023/08/05 12:47:12;;;;;;;;;5.75;4.00;;;;;;;;5067903;28;8887;-76
2023/08/05 12:49:42;;;;;;;;;2.75;2.75;;;;;;;;5068526;28;8880;-79
2023/08/05 12:52:10;;;;;;;;;3.75;3.75;;;;;;;;5068315;28;8855;-79
2023/08/05 12:54:37;;;;;;;;;3.00;3.00;;;;;;;;5068664;28;8859;-79
2023/08/05 12:57:05;;;;;;;;;4.00;3.00;;;;;;;;5068649;28;8838;-78
2023/08/05 12:59:32;;;;;;;;;4.75;4.75;;;;;;;;5071025;28;8905;-73
2023/08/05 13:01:59;;;;;;;;;3.50;3.25;;;;;;;;5079393;28;8803;-77
2023/08/05 13:04:26;;;;;;;;;2.00;2.00;;;;;;;;5068309;28;8912;-75
2023/08/05 13:06:56;;;;;;;;;2.00;2.00;;;;;;;;5068630;28;8993;-75
2023/08/05 13:09:24;;;;;;;;;2.00;2.00;;;;;;;;5067908;28;9527;-73
2023/08/05 13:11:51;;;;;;;;;4.00;3.25;;;;;;;;5067621;28;9002;-77
2023/08/05 13:14:18;;;;;;;;;6.00;4.00;;;;;;;;5067072;28;8861;-77
2023/08/05 13:16:45;;;;;;;;;3.75;1.75;;;;;;;;5067903;28;8960;-77
2023/08/05 13:19:15;;;;;;;;;3.25;3.25;;;;;;;;5067408;28;8874;-77
2023/08/05 13:21:42;;;;;;;;;5.50;2.50;;;;;;;;5067847;28;8867;-78
2023/08/05 13:24:10;;;;;;;;;2.00;2.00;;;;;;;;5064163;28;8845;-75
2023/08/05 13:26:38;;;;;;;;;3.25;3.25;;;;;;;;5058683;28;8873;-77
2023/08/05 13:29:05;;;;;;;;;2.75;2.75;;;;;;;;5066881;28;8892;-77
2023/08/05 13:31:32;;;;;;;;;4.00;4.00;;;;;;;;5067700;28;8815;-75
2023/08/05 13:33:59;;;;;;;;;3.75;3.75;;;;;;;;5067797;28;8986;-81
2023/08/05 13:36:27;;;;;;;;;4.00;4.00;;;;;;;;5067705;28;8862;-80
2023/08/05 13:38:54;;;;;;;;;3.50;3.50;;;;;;;;5067453;28;8858;-78
2023/08/05 13:41:23;;;;;;;;;3.25;3.25;;;;;;;;5067511;28;8866;-78
2023/08/05 13:43:50;;;;;;;;;4.75;2.75;;;;;;;;5067196;28;8963;-80
2023/08/05 13:46:17;;;;;;;;;3.25;3.25;;;;;;;;5067439;28;8851;-80
2023/08/05 13:48:44;;;;;;;;;2.00;2.00;;;;;;;;5067365;28;8843;-78
2023/08/05 13:51:12;;;;;;;;;4.00;4.00;;;;;;;;5067509;28;8876;-80
2023/08/05 13:53:39;;;;;;;;;5.25;2.50;;;;;;;;5067126;28;9671;-83
2023/08/05 13:56:06;;;;;;;;;3.75;3.75;;;;;;;;5066992;28;8977;-80
2023/08/05 13:58:38;;;;;;;;;4.25;2.00;;;;;;;;5067819;28;8850;-82
2023/08/05 14:01:05;;;;;;;;;1.75;1.75;;;;;;;;5066404;28;8864;-73
2023/08/05 14:03:33;;;;;;;;;2.75;2.75;;;;;;;;5075810;28;8999;-73
2023/08/05 14:06:00;;;;;;;;;4.50;3.00;;;;;;;;5070821;28;8839;-75
2023/08/05 14:08:28;;;;;;;;;5.00;3.25;;;;;;;;5067630;28;9703;-78
2023/08/05 14:10:55;;;;;;;;;3.00;3.00;;;;;;;;5067213;28;9633;-80
2023/08/05 14:13:23;;;;;;;;;4.75;3.50;;;;;;;;5076362;28;8898;-79
2023/08/05 14:15:52;;;;;;;;;3.75;3.75;;;;;;;;5069214;28;8847;-80
2023/08/05 14:18:20;;;;;;;;;4.00;4.00;;;;;;;;5067308;28;8847;-83
2023/08/05 14:20:48;;;;;;;;;3.75;3.75;;;;;;;;5067691;28;8870;-89
2023/08/05 14:23:15;;;;;;;;;6.00;3.50;;;;;;;;5067274;28;8869;-81
2023/08/05 14:25:43;;;;;;;;;4.00;4.00;;;;;;;;5070279;28;8884;-81
2023/08/05 14:28:10;;;;;;;;;5.75;5.00;;;;;;;;5070870;28;8851;-83
2023/08/05 14:30:38;;;;;;;;;4.00;3.00;;;;;;;;5071935;28;8896;-81
2023/08/05 14:33:07;;;;;;;;;3.00;3.00;;;;;;;;5072712;28;8882;-83
2023/08/05 14:35:35;;;;;;;;;2.75;2.75;;;;;;;;5073500;28;8996;-87
2023/08/05 14:38:03;;;;;;;;;5.00;3.25;;;;;;;;5075387;28;8847;-74
2023/08/05 14:40:33;;;;;;;;;3.25;3.25;;;;;;;;5075725;28;8974;-85
2023/08/05 14:43:01;;;;;;;;;2.50;2.50;;;;;;;;5074035;28;8866;-91
2023/08/05 14:45:29;;;;;;;;;4.00;3.75;;;;;;;;5071939;28;8874;-80
2023/08/05 14:47:56;;;;;;;;;1.00;1.00;;;;;;;;5072292;28;8850;-80
2023/08/05 14:50:25;;;;;;;;;4.00;4.00;;;;;;;;5071628;28;8894;-78
2023/08/05 14:52:52;;;;;;;;;3.25;3.25;;;;;;;;5066276;28;8993;-82
2023/08/05 14:55:19;;;;;;;;;2.50;2.50;;;;;;;;5084201;28;8852;-82
2023/08/05 14:57:47;;;;;;;;;3.00;3.00;;;;;;;;5071018;28;8847;-84